createdAt,value
2019-03-08T00:02:18.334Z,1.40
2019-03-08T00:04:48.682Z,1.23
2019-03-08T00:07:18.910Z,1.80
2019-03-08T00:09:49.128Z,1.80
2019-03-08T00:12:19.362Z,2.00
2019-03-08T00:14:49.602Z,1.63
2019-03-08T00:17:20.009Z,1.70
2019-03-08T00:19:50.246Z,1.70
2019-03-08T00:22:20.523Z,1.97
2019-03-08T00:24:50.698Z,2.20
2019-03-08T00:27:20.864Z,1.40
2019-03-08T00:29:51.533Z,2.07
2019-03-08T00:32:21.810Z,2.50
2019-03-08T00:34:51.946Z,2.00
2019-03-08T00:37:22.368Z,2.03
2019-03-08T00:39:52.550Z,1.80
2019-03-08T00:42:22.613Z,2.23
2019-03-08T00:44:53.783Z,2.20
2019-03-08T00:47:23.890Z,1.90
2019-03-08T00:49:54.533Z,1.70
2019-03-08T00:52:24.762Z,2.10
2019-03-08T00:54:54.782Z,1.80
2019-03-08T00:57:25.025Z,1.77
2019-03-08T00:59:55.505Z,1.53
2019-03-08T01:02:25.889Z,1.40
2019-03-08T01:04:55.915Z,1.60
2019-03-08T01:07:26.044Z,1.43
2019-03-08T01:09:56.128Z,1.70
2019-03-08T01:12:26.834Z,1.22
2019-03-08T01:14:56.822Z,1.30
2019-03-08T01:17:27.020Z,1.30
2019-03-08T01:19:57.298Z,1.73
2019-03-08T01:22:27.417Z,1.73
2019-03-08T01:24:57.460Z,1.53
2019-03-08T01:27:27.415Z,1.27
2019-03-08T01:29:57.654Z,1.27
2019-03-08T01:32:27.763Z,1.53
2019-03-08T01:34:57.968Z,1.33
2019-03-08T01:40:27.496Z,1.40
2019-03-08T01:42:57.487Z,1.17
2019-03-08T01:45:27.556Z,1.63
2019-03-08T01:47:57.732Z,1.10
2019-03-08T01:50:28.150Z,1.57
2019-03-08T01:52:58.103Z,1.47
2019-03-08T01:55:28.153Z,1.53
2019-03-08T01:57:58.214Z,0.80
2019-03-08T02:00:28.260Z,1.30
2019-03-08T02:02:58.240Z,1.17
2019-03-08T02:05:28.403Z,1.37
2019-03-08T02:07:58.436Z,1.33
2019-03-08T02:10:28.510Z,1.40
2019-03-08T02:12:58.608Z,1.37
2019-03-08T02:15:28.586Z,1.20
2019-03-08T02:17:58.667Z,1.07
2019-03-08T02:20:28.833Z,1.03
2019-03-08T02:22:58.921Z,1.40
2019-03-08T02:25:29.086Z,1.03
2019-03-08T02:27:59.238Z,1.43
2019-03-08T02:30:29.408Z,1.30
2019-03-08T02:32:59.474Z,1.40
2019-03-08T02:35:29.584Z,1.57
2019-03-08T02:38:00.278Z,1.60
2019-03-08T02:40:34.519Z,1.70
2019-03-08T02:43:05.883Z,1.07
2019-03-08T02:45:35.917Z,1.13
2019-03-08T02:48:06.425Z,1.00
2019-03-08T02:50:36.469Z,1.20
2019-03-08T02:53:06.759Z,1.30
2019-03-08T02:55:37.096Z,1.10
2019-03-08T02:58:07.267Z,1.07
2019-03-08T03:00:40.164Z,0.90
2019-03-08T03:03:10.512Z,1.80
2019-03-08T03:05:40.851Z,1.80
2019-03-08T03:08:10.948Z,1.57
2019-03-08T03:10:40.923Z,1.30
2019-03-08T03:13:11.174Z,1.93
2019-03-08T03:15:41.533Z,2.00
2019-03-08T03:18:12.600Z,2.10
2019-03-08T03:20:44.185Z,1.97
2019-03-08T03:23:14.394Z,1.77
2019-03-08T03:25:44.566Z,2.40
2019-03-08T03:28:14.673Z,2.40
2019-03-08T03:30:44.709Z,2.77
2019-03-08T03:33:15.035Z,1.93
2019-03-08T03:35:45.224Z,2.03
2019-03-08T03:38:15.475Z,1.80
2019-03-08T03:40:45.695Z,1.70
2019-03-08T03:43:15.798Z,1.70
2019-03-08T03:45:46.003Z,2.60
2019-03-08T03:48:16.104Z,1.98
2019-03-08T03:50:46.270Z,2.40
2019-03-08T03:53:16.373Z,1.95
2019-03-08T03:55:46.681Z,2.03
2019-03-08T03:58:16.869Z,2.80
2019-03-08T04:03:31.214Z,1.70
2019-03-08T04:06:01.425Z,2.37
2019-03-08T04:08:31.635Z,2.17
2019-03-08T04:11:01.752Z,2.90
2019-03-08T04:13:31.771Z,2.43
2019-03-08T04:16:01.755Z,2.10
2019-03-08T04:18:33.107Z,2.10
2019-03-08T04:21:03.157Z,1.83
2019-03-08T04:23:33.360Z,2.40
2019-03-08T04:26:04.366Z,2.17
2019-03-08T04:28:34.461Z,1.73
2019-03-08T04:31:04.635Z,1.50
2019-03-08T04:33:34.811Z,1.37
2019-03-08T04:36:05.168Z,2.00
2019-03-08T04:38:36.249Z,2.63
2019-03-08T04:41:06.399Z,1.43
2019-03-08T04:43:36.631Z,1.80
2019-03-08T04:46:06.796Z,3.10
2019-03-08T04:48:37.075Z,2.33
2019-03-08T04:51:07.077Z,2.00
2019-03-08T04:53:37.088Z,2.87
2019-03-08T04:56:07.057Z,2.53
2019-03-08T04:58:37.744Z,2.60
2019-03-08T05:01:08.154Z,2.57
2019-03-08T05:03:38.302Z,3.80
2019-03-08T05:06:08.354Z,3.13
2019-03-08T05:08:38.362Z,3.07
2019-03-08T05:11:08.376Z,1.30
2019-03-08T05:13:38.620Z,2.93
2019-03-08T05:16:08.951Z,3.23
2019-03-08T05:18:39.106Z,3.73
2019-03-08T05:21:09.256Z,3.22
2019-03-08T05:23:39.395Z,2.80
2019-03-08T05:26:09.503Z,2.80
2019-03-08T05:28:39.807Z,2.77
2019-03-08T05:31:10.626Z,3.10
2019-03-08T05:33:40.927Z,2.73
2019-03-08T05:36:10.916Z,3.60
2019-03-08T05:38:40.897Z,4.07
2019-03-08T05:41:10.935Z,4.50
2019-03-08T05:43:41.001Z,3.07
2019-03-08T05:46:11.043Z,2.83
2019-03-08T05:48:41.262Z,4.00
2019-03-08T05:51:11.729Z,4.47
2019-03-08T05:53:42.742Z,3.30
2019-03-08T05:56:13.033Z,3.53
2019-03-08T05:58:43.139Z,3.23
2019-03-08T06:01:13.230Z,3.80
2019-03-08T06:06:41.803Z,3.50
2019-03-08T06:09:11.854Z,3.57
2019-03-08T06:11:42.004Z,3.67
2019-03-08T06:14:13.096Z,3.30
2019-03-08T06:16:43.562Z,3.53
2019-03-08T06:19:13.629Z,3.30
2019-03-08T06:21:43.748Z,3.57
2019-03-08T06:24:13.840Z,4.03
2019-03-08T06:29:44.751Z,4.07
2019-03-08T06:32:14.768Z,3.43
2019-03-08T06:34:44.743Z,4.03
2019-03-08T06:37:14.823Z,2.67
2019-03-08T06:39:45.229Z,2.53
2019-03-08T06:42:15.375Z,3.93
2019-03-08T06:44:47.927Z,3.90
2019-03-08T06:47:18.293Z,3.30
2019-03-08T06:49:48.474Z,3.60
2019-03-08T06:52:18.672Z,4.37
2019-03-08T06:54:48.782Z,3.97
2019-03-08T06:57:20.642Z,5.05
2019-03-08T06:59:54.869Z,2.43
2019-03-08T07:02:25.284Z,3.10
2019-03-08T07:04:55.904Z,2.70
2019-03-08T07:07:25.900Z,2.90
2019-03-08T07:09:55.917Z,4.57
2019-03-08T07:12:26.434Z,3.90
2019-03-08T07:14:56.584Z,2.97
2019-03-08T07:17:26.691Z,2.83
2019-03-08T07:20:02.939Z,2.77
2019-03-08T07:23:01.382Z,2.40
2019-03-08T07:25:52.651Z,2.33
2019-03-08T07:28:43.003Z,2.30
2019-03-08T07:31:50.535Z,2.92
2019-03-08T07:34:29.206Z,2.93
2019-03-08T07:37:17.138Z,3.23
2019-03-08T07:40:06.421Z,2.67
2019-03-08T07:43:02.699Z,2.73
2019-03-08T07:45:57.992Z,3.33
2019-03-08T07:48:53.393Z,3.43
2019-03-08T07:51:46.442Z,3.37
2019-03-08T07:54:36.914Z,2.77
2019-03-08T07:57:24.983Z,4.03
2019-03-08T08:00:13.324Z,2.30
2019-03-08T08:02:53.655Z,2.77
2019-03-08T08:05:41.761Z,2.80
2019-03-08T08:08:19.194Z,2.90
2019-03-08T08:11:07.464Z,2.63
2019-03-08T08:13:52.494Z,3.33
2019-03-08T08:16:40.108Z,2.43
2019-03-08T08:19:17.651Z,3.40
2019-03-08T08:22:25.254Z,3.53
2019-03-08T08:25:04.403Z,3.67
2019-03-08T08:27:42.021Z,2.93
2019-03-08T08:30:22.682Z,2.80
2019-03-08T08:33:18.140Z,2.73
2019-03-08T08:36:03.813Z,2.50
2019-03-08T08:39:00.705Z,2.40
2019-03-08T08:41:38.984Z,3.43
2019-03-08T08:44:26.796Z,2.87
2019-03-08T08:47:16.059Z,3.17
2019-03-08T08:50:04.169Z,3.07
2019-03-08T08:52:52.031Z,2.73
2019-03-08T08:55:32.284Z,2.03
2019-03-08T08:58:16.380Z,2.27
2019-03-08T09:01:02.982Z,2.80
2019-03-08T09:03:49.200Z,2.53
2019-03-08T09:06:26.658Z,3.20
2019-03-08T09:09:14.514Z,3.70
2019-03-08T09:11:52.771Z,3.53
2019-03-08T09:14:30.931Z,3.47
2019-03-08T09:17:28.010Z,2.33
2019-03-08T09:20:08.217Z,3.03
2019-03-08T09:22:48.947Z,2.50
2019-03-08T09:25:47.597Z,2.63
2019-03-08T09:28:36.948Z,2.60
2019-03-08T09:31:21.843Z,2.60
2019-03-08T09:34:19.862Z,2.43
2019-03-08T09:36:58.660Z,2.80
2019-03-08T09:39:54.226Z,3.20
2019-03-08T09:42:49.844Z,2.57
2019-03-08T09:45:42.111Z,2.70
2019-03-08T09:48:34.216Z,3.63
2019-03-08T09:51:36.059Z,2.97
2019-03-08T09:54:24.509Z,2.77
2019-03-08T09:57:23.121Z,2.80
2019-03-08T10:00:18.928Z,3.07
2019-03-08T10:02:56.250Z,2.67
2019-03-08T10:05:45.812Z,2.53
2019-03-08T10:08:21.414Z,2.90
2019-03-08T10:11:02.992Z,2.63
2019-03-08T10:13:52.284Z,2.30
2019-03-08T10:16:36.437Z,3.20
2019-03-08T10:19:24.463Z,2.93
2019-03-08T10:22:12.328Z,2.37
2019-03-08T10:25:04.760Z,2.17
2019-03-08T10:27:59.780Z,2.70
2019-03-08T10:30:35.739Z,3.83
2019-03-08T10:33:18.331Z,2.93
2019-03-08T10:36:04.408Z,2.47
2019-03-08T10:38:56.694Z,2.73
2019-03-08T10:41:48.242Z,2.73
2019-03-08T10:44:49.845Z,3.00
2019-03-08T10:47:43.044Z,2.30
2019-03-08T10:50:29.130Z,2.10
2019-03-08T10:53:05.306Z,2.00
2019-03-08T10:55:54.476Z,2.13
2019-03-08T10:58:34.072Z,2.17
2019-03-08T11:01:23.601Z,2.77
2019-03-08T11:04:25.051Z,2.17
2019-03-08T11:06:59.809Z,2.97
2019-03-08T11:09:49.098Z,2.30
2019-03-08T11:12:33.317Z,1.97
2019-03-08T11:15:24.760Z,2.47
2019-03-08T11:18:11.711Z,2.10
2019-03-08T11:20:59.543Z,2.07
2019-03-08T11:23:45.011Z,2.33
2019-03-08T11:26:25.600Z,2.30
2019-03-08T11:29:18.144Z,2.90
2019-03-08T11:32:06.180Z,2.50
2019-03-08T11:34:57.433Z,2.33
2019-03-08T11:37:46.839Z,2.50
2019-03-08T11:40:36.215Z,2.30
2019-03-08T11:43:20.643Z,2.47
2019-03-08T11:45:56.592Z,3.03
2019-03-08T11:48:44.755Z,2.43
2019-03-08T11:51:43.004Z,2.87
2019-03-08T11:54:50.818Z,2.60
2019-03-08T11:57:49.012Z,2.23
2019-03-08T12:00:38.349Z,2.20
2019-03-08T12:03:33.735Z,2.97
2019-03-08T12:06:23.152Z,2.97
2019-03-08T12:09:15.938Z,2.33
2019-03-08T12:12:14.157Z,3.23
2019-03-08T12:14:52.058Z,2.67
2019-03-08T12:17:41.258Z,2.13
2019-03-08T12:20:33.698Z,2.50
2019-03-08T12:23:17.497Z,2.47
2019-03-08T12:26:03.140Z,2.93
2019-03-08T12:28:58.473Z,1.97
2019-03-08T12:32:06.163Z,1.93
2019-03-08T12:34:55.414Z,2.40
2019-03-08T12:37:48.446Z,2.50
2019-03-08T12:40:24.719Z,2.27
2019-03-08T12:43:26.076Z,3.10
2019-03-08T12:46:15.660Z,2.97
2019-03-08T12:48:55.127Z,2.27
2019-03-08T12:51:41.573Z,3.50
2019-03-08T12:54:39.815Z,2.73
2019-03-08T12:57:33.167Z,2.30
2019-03-08T13:00:32.623Z,2.52
2019-03-08T13:03:28.405Z,1.87
2019-03-08T13:06:16.421Z,2.13
2019-03-08T13:08:59.543Z,2.43
2019-03-08T13:11:33.194Z,2.10
2019-03-08T13:14:01.449Z,2.67
2019-03-08T13:16:31.712Z,2.73
2019-03-08T13:19:01.841Z,3.33
2019-03-08T13:21:31.919Z,3.43
2019-03-08T13:24:01.974Z,2.70
2019-03-08T13:26:32.218Z,2.10
2019-03-08T13:29:02.378Z,1.87
2019-03-08T13:31:32.531Z,2.63
2019-03-08T13:34:02.560Z,2.20
2019-03-08T13:36:32.562Z,1.80
2019-03-08T13:39:05.118Z,2.03
2019-03-08T13:41:36.808Z,2.40
2019-03-08T13:44:06.874Z,2.67
2019-03-08T13:46:36.868Z,2.37
2019-03-08T13:49:07.129Z,2.40
2019-03-08T13:51:37.812Z,2.80
2019-03-08T13:54:10.305Z,3.07
2019-03-08T13:56:40.538Z,2.20
2019-03-08T13:59:11.647Z,2.30
2019-03-08T14:01:41.714Z,2.63
2019-03-08T14:04:12.199Z,2.93
2019-03-08T14:06:42.676Z,2.10
2019-03-08T14:09:12.742Z,2.40
2019-03-08T14:11:42.957Z,2.73
2019-03-08T14:14:15.550Z,2.60
2019-03-08T14:16:46.162Z,2.63
2019-03-08T14:19:16.306Z,2.73
2019-03-08T14:21:46.449Z,2.10
2019-03-08T14:24:17.673Z,1.70
2019-03-08T14:26:47.875Z,2.47
2019-03-08T14:29:18.847Z,2.10
2019-03-08T14:32:00.684Z,1.77
2019-03-08T14:34:30.909Z,1.60
2019-03-08T14:37:00.901Z,2.77
2019-03-08T14:39:32.021Z,2.30
2019-03-08T14:42:09.988Z,2.37
2019-03-08T14:44:49.603Z,2.27
2019-03-08T14:47:29.460Z,1.97
2019-03-08T14:50:00.168Z,2.40
2019-03-08T14:52:30.406Z,2.70
2019-03-08T14:55:01.179Z,2.20
2019-03-08T14:57:38.890Z,2.47
2019-03-08T15:00:29.006Z,1.90
2019-03-08T15:03:00.113Z,1.90
2019-03-08T15:05:30.170Z,2.10
2019-03-08T15:08:00.439Z,2.27
2019-03-08T15:10:39.058Z,2.47
2019-03-08T15:13:03.012Z,2.60
2019-03-08T15:15:33.087Z,2.50
2019-03-08T15:18:06.859Z,2.33
2019-03-08T15:20:37.870Z,1.67
2019-03-08T15:23:08.447Z,1.93
2019-03-08T15:25:38.686Z,1.70
2019-03-08T15:28:08.677Z,2.03
2019-03-08T15:30:38.790Z,1.50
2019-03-08T15:33:08.782Z,1.70
2019-03-08T15:35:38.878Z,2.23
2019-03-08T15:38:10.081Z,2.47
2019-03-08T15:40:40.585Z,1.80
2019-03-08T15:43:13.691Z,1.83
2019-03-08T15:45:44.556Z,1.70
2019-03-08T15:48:15.619Z,1.47
2019-03-08T15:50:46.673Z,2.07
2019-03-08T15:53:17.717Z,2.43
2019-03-08T15:55:52.853Z,2.00
2019-03-08T15:58:19.690Z,1.70
2019-03-08T16:00:49.792Z,2.00
2019-03-08T16:03:19.966Z,2.27
2019-03-08T16:05:50.126Z,1.40
2019-03-08T16:08:23.542Z,1.70
2019-03-08T16:10:55.333Z,2.33
2019-03-08T16:13:28.639Z,2.20
2019-03-08T16:15:59.774Z,2.47
2019-03-08T16:18:29.813Z,1.93
2019-03-08T16:20:59.859Z,1.30
2019-03-08T16:23:29.901Z,2.00
2019-03-08T16:26:00.214Z,2.30
2019-03-08T16:28:30.373Z,2.07
2019-03-08T16:31:26.641Z,1.93
2019-03-08T16:33:58.772Z,1.80
2019-03-08T16:36:47.793Z,2.33
2019-03-08T16:39:33.995Z,3.63
2019-03-08T16:42:29.422Z,2.57
2019-03-08T16:45:17.554Z,1.90
2019-03-08T16:48:05.795Z,2.67
2019-03-08T16:50:56.149Z,2.87
2019-03-08T16:53:43.894Z,2.50
2019-03-08T16:56:34.234Z,1.83
2019-03-08T16:59:18.195Z,2.97
2019-03-08T17:02:10.150Z,2.47
2019-03-08T17:04:59.339Z,2.70
2019-03-08T17:07:44.374Z,1.70
2019-03-08T17:10:34.191Z,2.37
2019-03-08T17:13:22.542Z,2.00
2019-03-08T17:16:11.986Z,1.93
2019-03-08T17:19:19.286Z,2.23
2019-03-08T17:22:14.875Z,2.53
2019-03-08T17:25:10.578Z,2.23
2019-03-08T17:28:18.398Z,2.70
2019-03-08T17:31:06.506Z,2.23
2019-03-08T17:33:55.870Z,2.27
2019-03-08T17:36:40.735Z,1.83
2019-03-08T17:39:22.936Z,2.33
2019-03-08T17:42:28.031Z,1.80
2019-03-08T17:45:04.990Z,1.47
2019-03-08T17:47:44.582Z,2.27
2019-03-08T17:50:33.096Z,1.83
2019-03-08T17:53:20.712Z,2.02
2019-03-08T17:55:59.222Z,2.10
2019-03-08T17:58:47.952Z,2.13
2019-03-08T18:01:46.563Z,1.87
2019-03-08T18:04:24.024Z,1.97
2019-03-08T18:07:19.302Z,1.77
2019-03-08T18:10:07.140Z,2.13
2019-03-08T18:12:59.042Z,1.63
2019-03-08T18:15:45.577Z,2.00
2019-03-08T18:18:35.856Z,1.60
2019-03-08T18:21:15.793Z,1.77
2019-03-08T18:23:59.034Z,1.70
2019-03-08T18:26:51.698Z,1.60
2019-03-08T18:29:30.593Z,1.47
2019-03-08T18:32:20.166Z,1.50
2019-03-08T18:35:08.070Z,1.70
2019-03-08T18:38:09.844Z,1.97
2019-03-08T18:40:48.550Z,1.40
2019-03-08T18:43:53.469Z,1.40
2019-03-08T18:46:41.618Z,1.10
2019-03-08T18:49:43.548Z,1.37
2019-03-08T18:52:51.398Z,1.73
2019-03-08T18:55:39.500Z,1.53
2019-03-08T18:58:19.275Z,1.67
2019-03-08T19:00:57.510Z,1.40
2019-03-08T19:03:45.706Z,1.40
2019-03-08T19:06:28.163Z,1.83
2019-03-08T19:09:17.527Z,1.50
2019-03-08T19:12:07.959Z,1.57
2019-03-08T19:14:46.532Z,1.70
2019-03-08T19:17:48.146Z,1.47
2019-03-08T19:20:40.845Z,1.30
2019-03-08T19:23:33.108Z,1.50
2019-03-08T19:26:25.653Z,1.63
2019-03-08T19:29:01.510Z,2.20
2019-03-08T19:31:36.915Z,1.27
2019-03-08T19:34:15.758Z,1.83
2019-03-08T19:37:03.642Z,1.27
2019-03-08T19:39:51.708Z,1.83
2019-03-08T19:42:47.249Z,1.60
2019-03-08T19:45:35.323Z,2.27
2019-03-08T19:48:26.768Z,1.73
2019-03-08T19:51:14.958Z,1.67
2019-03-08T19:53:52.733Z,2.00
2019-03-08T19:56:33.505Z,1.60
2019-03-08T19:59:17.549Z,1.60
2019-03-08T20:02:15.693Z,2.43
2019-03-08T20:05:04.164Z,1.93
2019-03-08T20:08:01.989Z,1.23
2019-03-08T20:10:43.241Z,1.53
2019-03-08T20:13:22.997Z,2.17
2019-03-08T20:16:18.717Z,1.93
2019-03-08T20:19:11.399Z,1.60
2019-03-08T20:22:05.076Z,1.90
2019-03-08T20:24:43.093Z,2.00
2019-03-08T20:27:42.476Z,2.00
2019-03-08T20:30:44.013Z,1.87
2019-03-08T20:33:31.720Z,1.37
2019-03-08T20:36:24.365Z,1.60
2019-03-08T20:39:19.838Z,1.60
2019-03-08T20:42:15.238Z,1.63
2019-03-08T20:44:56.740Z,1.40
2019-03-08T20:47:29.538Z,1.77
2019-03-08T20:49:59.729Z,2.07
2019-03-08T20:52:29.868Z,2.07
2019-03-08T20:54:59.909Z,1.60
2019-03-08T20:57:29.938Z,1.80
2019-03-08T21:00:01.599Z,1.77
2019-03-08T21:02:33.367Z,1.30
2019-03-08T21:05:04.777Z,1.87
2019-03-08T21:07:35.033Z,1.70
2019-03-08T21:10:05.473Z,1.87
2019-03-08T21:12:35.566Z,1.53
2019-03-08T21:15:08.433Z,2.30
2019-03-08T21:17:39.662Z,1.47
2019-03-08T21:20:10.438Z,1.67
2019-03-08T21:22:40.523Z,2.57
2019-03-08T21:25:10.875Z,1.90
2019-03-08T21:27:40.968Z,2.53
2019-03-08T21:30:13.782Z,2.73
2019-03-08T21:32:44.114Z,2.53
2019-03-08T21:35:14.260Z,2.30
2019-03-08T21:37:46.012Z,3.43
2019-03-08T21:40:16.147Z,2.27
2019-03-08T21:42:46.228Z,3.17
2019-03-08T21:45:16.329Z,3.17
2019-03-08T21:47:46.292Z,3.00
2019-03-08T21:50:16.573Z,3.97
2019-03-08T21:52:46.853Z,4.17
2019-03-08T21:55:17.383Z,2.40
2019-03-08T21:57:47.671Z,5.23
2019-03-08T22:00:20.005Z,4.10
2019-03-08T22:02:50.963Z,5.03
2019-03-08T22:05:24.187Z,6.47
2019-03-08T22:07:54.195Z,5.17
2019-03-08T22:10:42.037Z,5.77
2019-03-08T22:13:12.074Z,4.27
2019-03-08T22:15:42.280Z,3.20
2019-03-08T22:18:13.498Z,6.63
2019-03-08T22:20:43.838Z,5.27
2019-03-08T22:23:13.812Z,5.13
2019-03-08T22:25:43.991Z,4.93
2019-03-08T22:28:13.998Z,6.27
2019-03-08T22:30:44.046Z,5.37
2019-03-08T22:33:14.214Z,6.10
2019-03-08T22:35:44.424Z,4.93
2019-03-08T22:38:14.447Z,5.93
2019-03-08T22:40:44.580Z,4.33
2019-03-08T22:43:14.632Z,4.70
2019-03-08T22:45:44.695Z,4.97
2019-03-08T22:48:14.761Z,4.30
2019-03-08T22:50:44.856Z,4.10
2019-03-08T22:53:14.956Z,4.77
2019-03-08T22:55:45.243Z,3.73
2019-03-08T22:58:15.404Z,4.23
2019-03-08T23:01:00.734Z,4.00
2019-03-08T23:03:35.142Z,3.90
2019-03-08T23:06:05.342Z,3.40
2019-03-08T23:08:35.366Z,3.00
2019-03-08T23:11:05.431Z,3.47
2019-03-08T23:13:37.249Z,2.90
2019-03-08T23:16:07.396Z,3.40
2019-03-08T23:18:37.634Z,2.80
2019-03-08T23:21:07.728Z,3.40
2019-03-08T23:23:37.721Z,2.50
2019-03-08T23:26:07.704Z,2.43
2019-03-08T23:28:51.788Z,2.70
2019-03-08T23:31:29.229Z,2.10
2019-03-08T23:33:59.477Z,2.50
2019-03-08T23:36:29.524Z,1.63
2019-03-08T23:39:00.587Z,1.70
2019-03-08T23:41:32.312Z,1.70
2019-03-08T23:44:02.543Z,1.90
2019-03-08T23:46:32.623Z,2.30
2019-03-08T23:49:02.725Z,1.80
2019-03-08T23:51:33.359Z,1.70
2019-03-08T23:54:04.407Z,1.53
2019-03-08T23:56:34.371Z,1.90
2019-03-08T23:59:04.857Z,1.77
